Snow Lake, Arkansas
Current Conditions -  °F | °C
As of 5:55 AM on Thursday 27 Nov 2014 (Local Time) from KRNV Reporting Station
Clear Clear  
Wind Chill: 31°   Ceiling: Unl
Heat Index: 37°   Visibility: 10mi
Dew Point: 31°   Wind: 8mph
Humidity: 80%   Direction: 320°NW
Pressure: 30.43"   Gusts: NA
Location:  34.06°N, 91.02°W
Report Text: KRNV 271155Z AUTO 32007KT 10SM CLR 03/00 A3043 RMK AO2 T00281003 10057 20025
Loading
Personal Weather Stations






























Interactive Weather Map New forecast layout! Learn more

10-Day Weather Forecast

Advertisements
Track Severe Weather on mobile